Decoded Metar for KCDR (CHADRON in NE, USA) (IATA:CDR) | Meteo·Mobile Aviation Weather
aviador You're here:

KCDR Decoded Metar

CHADRON in NE, USA
Report Time2019-05-19 21:53:00
UTC Time2019-05-19 22:35:33
Flight Rules vfr VFR
Wind060° at 10 kt
W.Decomp.*RWY 02: 8.7 kt HW 4.8 kt RCW
RWY 11: 4.8 kt HW 8.7 kt LCW
Visibility9999 m
Phenomena:N/A
Clouds:Few 032 Hf
Broken 050 Hf
Expected CloudBase > 2,400 ft AGL from Temp-Dew spread
Ceiling5,000 ft
Temp08°C (ISA -0)
Dew Point02°C (66% RH)
AAT2.7°C
QNH1017 hPa
Density Alt3,235 ft
Elevation3,314 ft
Report Wrong Elevation
Raw Report
KCDR 192153Z AUTO 06010KT 10SM FEW032 BKN050 08/02 A3002 RMK AO2
SLP184 T00830017=

Extra information for KCDR:More info

Metar Taf Metar & Taf Last 4 Metars F.Rules Stats Wind Profile Meteogram Temp Stats Airport Information Weather charts Add Link Nearby VenuesMetar ALERT Operation Metar Decoded Social comments

AIRNAV info for KCDR